sensor_id;sensor_type;location;lat;lon;timestamp;pressure;altitude;pressure_sealevel;temperature;humidity
52975;BME280;38839;45.186;5.720;2023-09-07T00:01:09;99323.47;;;23.39;100.00
52975;BME280;38839;45.186;5.720;2023-09-07T00:03:35;99320.16;;;23.34;100.00
52975;BME280;38839;45.186;5.720;2023-09-07T00:06:06;99329.19;;;23.31;100.00
52975;BME280;38839;45.186;5.720;2023-09-07T00:08:31;99331.00;;;23.30;100.00
52975;BME280;38839;45.186;5.720;2023-09-07T00:11:06;99334.69;;;23.28;100.00
52975;BME280;38839;45.186;5.720;2023-09-07T00:13:32;99326.00;;;23.24;100.00
52975;BME280;38839;45.186;5.720;2023-09-07T00:15:59;99326.84;;;23.25;100.00
52975;BME280;38839;45.186;5.720;2023-09-07T00:18:25;99330.53;;;23.22;100.00
52975;BME280;38839;45.186;5.720;2023-09-07T00:20:51;99323.34;;;23.24;100.00
52975;BME280;38839;45.186;5.720;2023-09-07T00:23:16;99316.44;;;23.20;100.00
52975;BME280;38839;45.186;5.720;2023-09-07T00:25:42;99322.81;;;23.18;100.00
52975;BME280;38839;45.186;5.720;2023-09-07T00:28:07;99320.28;;;23.15;100.00
52975;BME280;38839;45.186;5.720;2023-09-07T00:30:33;99321.47;;;23.09;100.00
52975;BME280;38839;45.186;5.720;2023-09-07T00:32:58;99318.66;;;23.12;100.00
52975;BME280;38839;45.186;5.720;2023-09-07T00:35:23;99321.91;;;23.17;100.00
52975;BME280;38839;45.186;5.720;2023-09-07T00:37:49;99325.84;;;23.10;100.00
52975;BME280;38839;45.186;5.720;2023-09-07T00:40:14;99324.13;;;23.09;100.00
52975;BME280;38839;45.186;5.720;2023-09-07T00:42:39;99324.13;;;23.09;100.00
52975;BME280;38839;45.186;5.720;2023-09-07T00:45:05;99328.59;;;23.08;100.00
52975;BME280;38839;45.186;5.720;2023-09-07T00:47:34;99323.03;;;23.13;100.00
52975;BME280;38839;45.186;5.720;2023-09-07T00:50:00;99316.78;;;23.14;100.00
52975;BME280;38839;45.186;5.720;2023-09-07T00:52:27;99308.00;;;23.12;100.00
52975;BME280;38839;45.186;5.720;2023-09-07T00:54:52;99310.91;;;23.07;100.00
52975;BME280;38839;45.186;5.720;2023-09-07T00:57:18;99322.56;;;23.05;100.00
52975;BME280;38839;45.186;5.720;2023-09-07T00:59:43;99318.19;;;23.04;100.00
52975;BME280;38839;45.186;5.720;2023-09-07T01:02:09;99318.97;;;23.06;100.00
52975;BME280;38839;45.186;5.720;2023-09-07T01:04:34;99309.25;;;23.05;100.00
52975;BME280;38839;45.186;5.720;2023-09-07T01:07:04;99317.22;;;23.05;100.00
52975;BME280;38839;45.186;5.720;2023-09-07T01:09:34;99319.13;;;23.03;100.00
52975;BME280;38839;45.186;5.720;2023-09-07T01:12:01;99317.53;;;22.99;100.00
52975;BME280;38839;45.186;5.720;2023-09-07T01:14:26;99322.00;;;22.98;100.00
52975;BME280;38839;45.186;5.720;2023-09-07T01:16:52;99315.97;;;22.95;100.00
52975;BME280;38839;45.186;5.720;2023-09-07T01:19:17;99310.03;;;22.89;100.00
52975;BME280;38839;45.186;5.720;2023-09-07T01:21:43;99310.81;;;22.92;100.00
52975;BME280;38839;45.186;5.720;2023-09-07T01:24:09;99309.25;;;22.87;100.00
52975;BME280;38839;45.186;5.720;2023-09-07T01:26:36;99309.38;;;22.84;100.00
52975;BME280;38839;45.186;5.720;2023-09-07T01:29:05;99306.25;;;22.76;100.00
52975;BME280;38839;45.186;5.720;2023-09-07T01:31:37;99304.69;;;22.72;100.00
52975;BME280;38839;45.186;5.720;2023-09-07T01:34:03;99307.53;;;22.69;100.00
52975;BME280;38839;45.186;5.720;2023-09-07T01:36:29;99307.91;;;22.61;100.00
52975;BME280;38839;45.186;5.720;2023-09-07T01:38:54;99302.09;;;22.53;100.00
52975;BME280;38839;45.186;5.720;2023-09-07T01:41:20;99305.63;;;22.54;100.00
52975;BME280;38839;45.186;5.720;2023-09-07T01:43:46;99302.03;;;22.55;100.00
52975;BME280;38839;45.186;5.720;2023-09-07T01:46:11;99302.16;;;22.52;100.00
52975;BME280;38839;45.186;5.720;2023-09-07T01:48:37;99306.94;;;22.45;100.00
52975;BME280;38839;45.186;5.720;2023-09-07T01:51:02;99302.47;;;22.45;100.00
52975;BME280;38839;45.186;5.720;2023-09-07T01:53:27;99306.81;;;22.48;100.00
52975;BME280;38839;45.186;5.720;2023-09-07T01:55:56;99302.66;;;22.42;100.00
52975;BME280;38839;45.186;5.720;2023-09-07T01:58:22;99300.22;;;22.38;100.00
52975;BME280;38839;45.186;5.720;2023-09-07T02:00:49;99296.91;;;22.33;100.00
52975;BME280;38839;45.186;5.720;2023-09-07T02:03:14;99298.66;;;22.34;100.00
52975;BME280;38839;45.186;5.720;2023-09-07T02:05:40;99301.50;;;22.29;100.00
52975;BME280;38839;45.186;5.720;2023-09-07T02:08:05;99306.94;;;22.27;100.00
52975;BME280;38839;45.186;5.720;2023-09-07T02:10:31;99303.56;;;22.22;100.00
52975;BME280;38839;45.186;5.720;2023-09-07T02:12:56;99300.50;;;22.13;100.00
52975;BME280;38839;45.186;5.720;2023-09-07T02:15:23;99308.56;;;22.11;100.00
52975;BME280;38839;45.186;5.720;2023-09-07T02:17:49;99300.72;;;22.08;100.00
52975;BME280;38839;45.186;5.720;2023-09-07T02:20:14;99301.97;;;22.01;100.00
52975;BME280;38839;45.186;5.720;2023-09-07T02:22:40;99297.94;;;21.92;100.00
52975;BME280;38839;45.186;5.720;2023-09-07T02:25:06;99302.25;;;21.95;100.00
52975;BME280;38839;45.186;5.720;2023-09-07T02:27:35;99310.13;;;21.96;100.00
52975;BME280;38839;45.186;5.720;2023-09-07T02:30:04;99309.28;;;21.96;100.00
52975;BME280;38839;45.186;5.720;2023-09-07T02:32:31;99297.50;;;22.01;100.00
52975;BME280;38839;45.186;5.720;2023-09-07T02:34:56;99305.59;;;21.98;100.00
52975;BME280;38839;45.186;5.720;2023-09-07T02:37:22;99309.16;;;21.99;100.00
52975;BME280;38839;45.186;5.720;2023-09-07T02:39:47;99310.00;;;21.99;100.00
52975;BME280;38839;45.186;5.720;2023-09-07T02:42:12;99301.25;;;21.97;100.00
52975;BME280;38839;45.186;5.720;2023-09-07T02:44:38;99303.75;;;22.00;100.00
52975;BME280;38839;45.186;5.720;2023-09-07T02:47:03;99299.22;;;22.02;100.00
52975;BME280;38839;45.186;5.720;2023-09-07T02:49:29;99306.41;;;22.00;100.00
52975;BME280;38839;45.186;5.720;2023-09-07T02:51:54;99307.34;;;21.99;100.00
52975;BME280;38839;45.186;5.720;2023-09-07T02:54:20;99310.00;;;21.99;100.00
52975;BME280;38839;45.186;5.720;2023-09-07T02:56:45;99316.34;;;21.97;100.00
52975;BME280;38839;45.186;5.720;2023-09-07T02:59:10;99317.31;;;21.94;100.00
52975;BME280;38839;45.186;5.720;2023-09-07T03:01:38;99318.91;;;21.98;100.00
52975;BME280;38839;45.186;5.720;2023-09-07T03:04:04;99314.31;;;21.83;100.00
52975;BME280;38839;45.186;5.720;2023-09-07T03:06:30;99315.75;;;21.71;100.00
52975;BME280;38839;45.186;5.720;2023-09-07T03:08:55;99320.75;;;21.58;100.00
52975;BME280;38839;45.186;5.720;2023-09-07T03:11:22;99321.56;;;21.40;100.00
52975;BME280;38839;45.186;5.720;2023-09-07T03:13:47;99326.28;;;21.33;100.00
52975;BME280;38839;45.186;5.720;2023-09-07T03:16:12;99324.63;;;21.30;100.00
52975;BME280;38839;45.186;5.720;2023-09-07T03:18:38;99319.19;;;21.34;100.00
52975;BME280;38839;45.186;5.720;2023-09-07T03:21:03;99325.69;;;21.26;100.00
52975;BME280;38839;45.186;5.720;2023-09-07T03:23:30;99320.47;;;21.25;100.00
52975;BME280;38839;45.186;5.720;2023-09-07T03:25:56;99316.38;;;21.37;100.00
52975;BME280;38839;45.186;5.720;2023-09-07T03:28:22;99318.13;;;21.38;100.00
52975;BME280;38839;45.186;5.720;2023-09-07T03:30:47;99323.69;;;21.32;100.00
52975;BME280;38839;45.186;5.720;2023-09-07T03:33:13;99314.50;;;21.39;100.00
52975;BME280;38839;45.186;5.720;2023-09-07T03:35:38;99317.16;;;21.39;100.00
52975;BME280;38839;45.186;5.720;2023-09-07T03:38:06;99315.69;;;21.33;100.00
52975;BME280;38839;45.186;5.720;2023-09-07T03:40:31;99320.09;;;21.33;100.00
52975;BME280;38839;45.186;5.720;2023-09-07T03:42:57;99316.13;;;21.22;100.00
52975;BME280;38839;45.186;5.720;2023-09-07T03:45:22;99322.22;;;21.24;100.00
52975;BME280;38839;45.186;5.720;2023-09-07T03:47:48;99310.91;;;21.21;100.00
52975;BME280;38839;45.186;5.720;2023-09-07T03:50:13;99313.63;;;21.19;100.00
52975;BME280;38839;45.186;5.720;2023-09-07T03:52:38;99309.19;;;21.20;100.00
52975;BME280;38839;45.186;5.720;2023-09-07T03:55:04;99315.28;;;21.22;100.00
52975;BME280;38839;45.186;5.720;2023-09-07T03:57:30;99312.69;;;21.20;100.00
52975;BME280;38839;45.186;5.720;2023-09-07T03:59:58;99318.50;;;21.28;100.00
52975;BME280;38839;45.186;5.720;2023-09-07T04:02:24;99320.78;;;21.38;100.00
52975;BME280;38839;45.186;5.720;2023-09-07T04:04:50;99321.56;;;21.40;100.00
52975;BME280;38839;45.186;5.720;2023-09-07T04:07:16;99320.47;;;21.45;100.00
52975;BME280;38839;45.186;5.720;2023-09-07T04:09:42;99324.09;;;21.43;100.00
52975;BME280;38839;45.186;5.720;2023-09-07T04:12:08;99319.75;;;21.40;100.00
52975;BME280;38839;45.186;5.720;2023-09-07T04:14:34;99328.72;;;21.38;100.00
52975;BME280;38839;45.186;5.720;2023-09-07T04:16:59;99329.66;;;21.37;100.00
52975;BME280;38839;45.186;5.720;2023-09-07T04:19:24;99324.50;;;21.34;100.00
52975;BME280;38839;45.186;5.720;2023-09-07T04:21:49;99328.84;;;21.35;100.00
52975;BME280;38839;45.186;5.720;2023-09-07T04:24:16;99328.06;;;21.33;100.00
52975;BME280;38839;45.186;5.720;2023-09-07T04:26:42;99328.78;;;21.36;100.00
52975;BME280;38839;45.186;5.720;2023-09-07T04:29:07;99330.59;;;21.36;100.00
52975;BME280;38839;45.186;5.720;2023-09-07T04:31:33;99330.59;;;21.36;100.00
52975;BME280;38839;45.186;5.720;2023-09-07T04:33:58;99333.47;;;21.31;100.00
52975;BME280;38839;45.186;5.720;2023-09-07T04:36:25;99342.00;;;21.38;100.00
52975;BME280;38839;45.186;5.720;2023-09-07T04:38:50;99328.84;;;21.35;100.00
52975;BME280;38839;45.186;5.720;2023-09-07T04:41:15;99338.63;;;21.34;100.00
52975;BME280;38839;45.186;5.720;2023-09-07T04:43:42;99336.28;;;21.26;100.00
52975;BME280;38839;45.186;5.720;2023-09-07T04:46:13;99337.25;;;21.25;100.00
52975;BME280;38839;45.186;5.720;2023-09-07T04:48:39;99338.09;;;21.26;100.00
52975;BME280;38839;45.186;5.720;2023-09-07T04:51:07;99335.72;;;21.20;100.00
52975;BME280;38839;45.186;5.720;2023-09-07T04:53:34;99339.94;;;21.24;100.00
52975;BME280;38839;45.186;5.720;2023-09-07T04:56:03;99336.72;;;21.17;100.00
52975;BME280;38839;45.186;5.720;2023-09-07T04:58:29;99337.63;;;21.16;100.00
52975;BME280;38839;45.186;5.720;2023-09-07T05:01:07;99349.72;;;21.03;100.00
52975;BME280;38839;45.186;5.720;2023-09-07T05:03:36;99347.69;;;21.08;100.00
52975;BME280;38839;45.186;5.720;2023-09-07T05:06:02;99355.66;;;21.28;100.00
52975;BME280;38839;45.186;5.720;2023-09-07T05:08:31;99349.16;;;21.36;100.00
52975;BME280;38839;45.186;5.720;2023-09-07T05:10:58;99356.91;;;21.40;100.00
52975;BME280;38839;45.186;5.720;2023-09-07T05:13:24;99359.00;;;21.34;100.00
52975;BME280;38839;45.186;5.720;2023-09-07T05:15:50;99361.84;;;21.29;100.00
52975;BME280;38839;45.186;5.720;2023-09-07T05:18:17;99359.84;;;21.34;100.00
52975;BME280;38839;45.186;5.720;2023-09-07T05:20:43;99366.28;;;21.28;100.00
52975;BME280;38839;45.186;5.720;2023-09-07T05:23:13;99371.84;;;21.22;100.00
52975;BME280;38839;45.186;5.720;2023-09-07T05:25:49;99369.34;;;21.19;100.00
52975;BME280;38839;45.186;5.720;2023-09-07T05:28:18;99372.78;;;21.21;100.00
52975;BME280;38839;45.186;5.720;2023-09-07T05:30:44;99377.16;;;21.22;100.00
52975;BME280;38839;45.186;5.720;2023-09-07T05:33:10;99375.16;;;20.86;100.00
52975;BME280;38839;45.186;5.720;2023-09-07T05:35:36;99379.47;;;20.67;100.00
52975;BME280;38839;45.186;5.720;2023-09-07T05:38:02;99378.84;;;20.82;100.00
52975;BME280;38839;45.186;5.720;2023-09-07T05:40:28;99379.53;;;20.87;100.00
52975;BME280;38839;45.186;5.720;2023-09-07T05:42:53;99384.41;;;20.98;100.00
52975;BME280;38839;45.186;5.720;2023-09-07T05:45:19;99378.94;;;21.01;100.00
52975;BME280;38839;45.186;5.720;2023-09-07T05:47:45;99380.53;;;21.05;100.00
52975;BME280;38839;45.186;5.720;2023-09-07T05:50:10;99384.84;;;21.08;100.00
52975;BME280;38839;45.186;5.720;2023-09-07T05:52:36;99382.72;;;21.16;100.00
52975;BME280;38839;45.186;5.720;2023-09-07T05:55:01;99390.56;;;21.19;100.00
52975;BME280;38839;45.186;5.720;2023-09-07T05:57:27;99391.38;;;21.21;100.00
52975;BME280;38839;45.186;5.720;2023-09-07T05:59:53;99394.66;;;21.26;100.00
52975;BME280;38839;45.186;5.720;2023-09-07T06:02:19;99400.78;;;21.28;100.00
52975;BME280;38839;45.186;5.720;2023-09-07T06:04:45;99402.25;;;21.36;100.00
52975;BME280;38839;45.186;5.720;2023-09-07T06:07:10;99399.59;;;21.36;100.00
52975;BME280;38839;45.186;5.720;2023-09-07T06:09:36;99396.34;;;21.29;100.00
52975;BME280;38839;45.186;5.720;2023-09-07T06:12:02;99394.88;;;21.22;100.00
52975;BME280;38839;45.186;5.720;2023-09-07T06:14:28;99396.41;;;21.27;100.00
52975;BME280;38839;45.186;5.720;2023-09-07T06:16:53;99388.25;;;21.32;100.00
52975;BME280;38839;45.186;5.720;2023-09-07T06:19:21;99391.84;;;21.31;100.00
52975;BME280;38839;45.186;5.720;2023-09-07T06:21:46;99394.13;;;21.39;100.00
52975;BME280;38839;45.186;5.720;2023-09-07T06:24:12;99393.78;;;21.48;100.00
52975;BME280;38839;45.186;5.720;2023-09-07T06:26:37;99382.38;;;21.46;100.00
52975;BME280;38839;45.186;5.720;2023-09-07T06:29:02;99388.31;;;21.51;100.00
52975;BME280;38839;45.186;5.720;2023-09-07T06:31:28;99386.63;;;21.50;100.00
52975;BME280;38839;45.186;5.720;2023-09-07T06:33:54;99385.47;;;21.56;100.00
52975;BME280;38839;45.186;5.720;2023-09-07T06:36:19;99387.25;;;21.55;100.00
52975;BME280;38839;45.186;5.720;2023-09-07T06:38:44;99387.94;;;21.60;100.00
52975;BME280;38839;45.186;5.720;2023-09-07T06:41:10;99392.97;;;21.66;100.00
52975;BME280;38839;45.186;5.720;2023-09-07T06:43:37;99380.19;;;21.75;100.00
52975;BME280;38839;45.186;5.720;2023-09-07T06:46:06;99385.44;;;21.76;100.00
52975;BME280;38839;45.186;5.720;2023-09-07T06:48:31;99390.25;;;21.87;100.00
52975;BME280;38839;45.186;5.720;2023-09-07T06:51:04;99388.41;;;21.89;100.00
52975;BME280;38839;45.186;5.720;2023-09-07T06:53:30;99388.69;;;21.83;100.00
52975;BME280;38839;45.186;5.720;2023-09-07T06:56:03;99389.81;;;21.96;100.00
52975;BME280;38839;45.186;5.720;2023-09-07T06:58:29;99396.03;;;21.97;100.00
52975;BME280;38839;45.186;5.720;2023-09-07T07:00:58;99387.38;;;21.92;100.00
52975;BME280;38839;45.186;5.720;2023-09-07T07:03:28;99396.22;;;21.92;100.00
52975;BME280;38839;45.186;5.720;2023-09-07T07:05:53;99403.78;;;22.01;100.00
52975;BME280;38839;45.186;5.720;2023-09-07T07:08:19;99393.94;;;22.03;100.00
52975;BME280;38839;45.186;5.720;2023-09-07T07:10:44;99399.47;;;21.99;100.00
52975;BME280;38839;45.186;5.720;2023-09-07T07:13:10;99403.78;;;22.01;100.00
52975;BME280;38839;45.186;5.720;2023-09-07T07:15:36;99406.38;;;22.03;100.00
52975;BME280;38839;45.186;5.720;2023-09-07T07:18:01;99403.50;;;22.07;100.00
52975;BME280;38839;45.186;5.720;2023-09-07T07:20:33;99409.59;;;22.09;100.00
52975;BME280;38839;45.186;5.720;2023-09-07T07:22:59;99413.84;;;22.14;100.00
52975;BME280;38839;45.186;5.720;2023-09-07T07:25:24;99414.22;;;22.25;100.00
52975;BME280;38839;45.186;5.720;2023-09-07T07:27:50;99412.72;;;22.38;100.00
52975;BME280;38839;45.186;5.720;2023-09-07T07:30:15;99409.69;;;22.46;100.00
52975;BME280;38839;45.186;5.720;2023-09-07T07:32:41;99410.38;;;22.49;100.00
52975;BME280;38839;45.186;5.720;2023-09-07T07:35:06;99412.84;;;22.54;100.00
52975;BME280;38839;45.186;5.720;2023-09-07T07:37:32;99410.38;;;22.49;100.00
52975;BME280;38839;45.186;5.720;2023-09-07T07:39:57;99417.22;;;22.55;100.00
52975;BME280;38839;45.186;5.720;2023-09-07T07:42:23;99412.38;;;22.63;100.00
52975;BME280;38839;45.186;5.720;2023-09-07T07:44:48;99404.97;;;22.70;100.00
52975;BME280;38839;45.186;5.720;2023-09-07T07:47:14;99406.22;;;22.80;100.00
52975;BME280;38839;45.186;5.720;2023-09-07T07:49:39;99417.66;;;22.82;100.00
52975;BME280;38839;45.186;5.720;2023-09-07T07:52:05;99412.34;;;22.82;100.00
52975;BME280;38839;45.186;5.720;2023-09-07T07:54:30;99420.66;;;22.94;100.00
52975;BME280;38839;45.186;5.720;2023-09-07T07:56:55;99406.84;;;23.04;100.00
52975;BME280;38839;45.186;5.720;2023-09-07T07:59:21;99411.00;;;23.10;100.00
52975;BME280;38839;45.186;5.720;2023-09-07T08:01:46;99408.66;;;23.21;100.00
52975;BME280;38839;45.186;5.720;2023-09-07T08:04:12;99417.88;;;23.32;100.00
52975;BME280;38839;45.186;5.720;2023-09-07T08:06:37;99415.69;;;23.57;100.00
52975;BME280;38839;45.186;5.720;2023-09-07T08:09:03;99413.25;;;24.03;100.00
52975;BME280;38839;45.186;5.720;2023-09-07T08:11:28;99409.97;;;24.63;100.00
52975;BME280;38839;45.186;5.720;2023-09-07T08:13:53;99407.72;;;25.02;100.00
52975;BME280;38839;45.186;5.720;2023-09-07T08:16:19;99409.09;;;25.25;100.00
52975;BME280;38839;45.186;5.720;2023-09-07T08:18:44;99411.50;;;25.44;100.00
52975;BME280;38839;45.186;5.720;2023-09-07T08:21:10;99411.69;;;25.55;100.00
52975;BME280;38839;45.186;5.720;2023-09-07T08:23:36;99409.53;;;25.47;100.00
52975;BME280;38839;45.186;5.720;2023-09-07T08:26:01;99413.44;;;25.70;100.00
52975;BME280;38839;45.186;5.720;2023-09-07T08:28:28;99412.31;;;25.75;100.00
52975;BME280;38839;45.186;5.720;2023-09-07T08:30:54;99405.91;;;25.77;100.00
52975;BME280;38839;45.186;5.720;2023-09-07T08:33:20;99408.50;;;25.79;100.00
52975;BME280;38839;45.186;5.720;2023-09-07T08:35:56;99404.47;;;25.86;100.00
52975;BME280;38839;45.186;5.720;2023-09-07T08:38:22;99406.78;;;26.06;99.93
52975;BME280;38839;45.186;5.720;2023-09-07T08:40:50;99413.19;;;26.04;99.19
52975;BME280;38839;45.186;5.720;2023-09-07T08:43:17;99408.31;;;26.10;98.90
52975;BME280;38839;45.186;5.720;2023-09-07T08:45:55;99406.41;;;26.13;97.36
52975;BME280;38839;45.186;5.720;2023-09-07T08:48:26;99409.59;;;26.05;97.50
52975;BME280;38839;45.186;5.720;2023-09-07T08:50:52;99405.09;;;26.05;97.69
52975;BME280;38839;45.186;5.720;2023-09-07T08:53:19;99405.06;;;26.20;97.82
52975;BME280;38839;45.186;5.720;2023-09-07T08:55:45;99408.47;;;26.36;97.01
52975;BME280;38839;45.186;5.720;2023-09-07T08:58:11;99412.22;;;26.34;96.65
52975;BME280;38839;45.186;5.720;2023-09-07T09:00:37;99399.06;;;26.58;94.81
52975;BME280;38839;45.186;5.720;2023-09-07T09:03:03;99395.25;;;26.47;94.32
52975;BME280;38839;45.186;5.720;2023-09-07T09:05:30;99398.69;;;26.49;94.14
52975;BME280;38839;45.186;5.720;2023-09-07T09:08:05;99400.53;;;26.76;93.37
52975;BME280;38839;45.186;5.720;2023-09-07T09:10:31;99405.66;;;26.94;91.59
52975;BME280;38839;45.186;5.720;2023-09-07T09:12:56;99400.81;;;26.99;90.86
52975;BME280;38839;45.186;5.720;2023-09-07T09:15:25;99396.38;;;27.12;90.07
52975;BME280;38839;45.186;5.720;2023-09-07T09:17:50;99392.38;;;27.05;89.82
52975;BME280;38839;45.186;5.720;2023-09-07T09:20:20;99402.13;;;26.93;89.93
52975;BME280;38839;45.186;5.720;2023-09-07T09:22:48;99390.75;;;26.89;90.13
52975;BME280;38839;45.186;5.720;2023-09-07T09:25:15;99391.22;;;26.69;91.49
52975;BME280;38839;45.186;5.720;2023-09-07T09:27:41;99384.25;;;26.66;92.04
52975;BME280;38839;45.186;5.720;2023-09-07T09:30:09;99373.91;;;26.75;91.68
52975;BME280;38839;45.186;5.720;2023-09-07T09:32:35;99383.94;;;26.71;91.99
52975;BME280;38839;45.186;5.720;2023-09-07T09:35:01;99377.44;;;26.75;92.03
52975;BME280;38839;45.186;5.720;2023-09-07T09:37:30;99377.84;;;26.69;92.42
52975;BME280;38839;45.186;5.720;2023-09-07T09:39:57;99379.19;;;26.62;93.01
52975;BME280;38839;45.186;5.720;2023-09-07T09:42:25;99373.75;;;26.63;93.26
52975;BME280;38839;45.186;5.720;2023-09-07T09:44:54;99379.13;;;26.76;92.09
52975;BME280;38839;45.186;5.720;2023-09-07T09:47:21;99373.94;;;26.87;91.26
52975;BME280;38839;45.186;5.720;2023-09-07T09:49:49;99374.75;;;26.75;91.05
52975;BME280;38839;45.186;5.720;2023-09-07T09:52:15;99370.66;;;26.69;91.88
52975;BME280;38839;45.186;5.720;2023-09-07T09:54:42;99368.22;;;26.79;91.65
52975;BME280;38839;45.186;5.720;2023-09-07T09:57:07;99366.84;;;26.86;91.15
52975;BME280;38839;45.186;5.720;2023-09-07T09:59:34;99365.66;;;26.78;91.90
52975;BME280;38839;45.186;5.720;2023-09-07T10:02:00;99366.50;;;26.78;92.29
52975;BME280;38839;45.186;5.720;2023-09-07T10:04:27;99362.53;;;26.71;91.75
52975;BME280;38839;45.186;5.720;2023-09-07T10:07:01;99363.47;;;26.70;92.19
52975;BME280;38839;45.186;5.720;2023-09-07T10:09:33;99361.97;;;26.66;91.40
52975;BME280;38839;45.186;5.720;2023-09-07T10:11:59;99354.69;;;26.68;91.95
52975;BME280;38839;45.186;5.720;2023-09-07T10:14:37;99345.09;;;26.78;92.00
52975;BME280;38839;45.186;5.720;2023-09-07T10:17:03;99352.16;;;26.79;91.81
52975;BME280;38839;45.186;5.720;2023-09-07T10:19:29;99340.38;;;26.69;91.44
52975;BME280;38839;45.186;5.720;2023-09-07T10:21:56;99343.91;;;26.69;91.13
52975;BME280;38839;45.186;5.720;2023-09-07T10:24:32;99342.06;;;26.70;90.42
52975;BME280;38839;45.186;5.720;2023-09-07T10:27:09;99334.25;;;26.67;90.45
52975;BME280;38839;45.186;5.720;2023-09-07T10:29:43;99342.53;;;26.77;89.71
52975;BME280;38839;45.186;5.720;2023-09-07T10:32:09;99336.66;;;26.84;88.26
52975;BME280;38839;45.186;5.720;2023-09-07T10:34:38;99336.31;;;26.76;87.63
52975;BME280;38839;45.186;5.720;2023-09-07T10:37:05;99333.09;;;26.71;87.85
52975;BME280;38839;45.186;5.720;2023-09-07T10:39:34;99332.03;;;26.74;87.33
52975;BME280;38839;45.186;5.720;2023-09-07T10:41:59;99334.38;;;26.78;87.22
52975;BME280;38839;45.186;5.720;2023-09-07T10:44:26;99324.31;;;26.69;87.01
52975;BME280;38839;45.186;5.720;2023-09-07T10:46:52;99323.66;;;26.65;87.10
52975;BME280;38839;45.186;5.720;2023-09-07T10:49:19;99309.50;;;26.63;86.71
52975;BME280;38839;45.186;5.720;2023-09-07T10:51:46;99320.13;;;26.65;86.39
52975;BME280;38839;45.186;5.720;2023-09-07T10:54:23;99315.53;;;26.67;85.95
52975;BME280;38839;45.186;5.720;2023-09-07T10:56:49;99301.16;;;26.68;86.25
52975;BME280;38839;45.186;5.720;2023-09-07T10:59:16;99303.44;;;26.74;85.53
52975;BME280;38839;45.186;5.720;2023-09-07T11:01:44;99299.47;;;26.67;84.36
52975;BME280;38839;45.186;5.720;2023-09-07T11:04:10;99298.31;;;26.71;83.71
52975;BME280;38839;45.186;5.720;2023-09-07T11:06:39;99296.56;;;26.70;81.34
52975;BME280;38839;45.186;5.720;2023-09-07T11:09:05;99287.38;;;26.74;80.10
52975;BME280;38839;45.186;5.720;2023-09-07T11:11:34;99289.63;;;26.80;79.49
52975;BME280;38839;45.186;5.720;2023-09-07T11:14:04;99283.09;;;26.84;77.34
52975;BME280;38839;45.186;5.720;2023-09-07T11:16:32;99284.41;;;26.92;76.27
52975;BME280;38839;45.186;5.720;2023-09-07T11:19:05;99276.38;;;26.92;71.38
52975;BME280;38839;45.186;5.720;2023-09-07T11:21:31;99268.69;;;27.00;72.18
52975;BME280;38839;45.186;5.720;2023-09-07T11:23:59;99270.19;;;27.04;70.16
52975;BME280;38839;45.186;5.720;2023-09-07T11:26:25;99269.53;;;27.13;68.46
52975;BME280;38839;45.186;5.720;2023-09-07T11:28:51;99265.47;;;27.20;68.82
52975;BME280;38839;45.186;5.720;2023-09-07T11:31:19;99262.91;;;27.32;65.65
52975;BME280;38839;45.186;5.720;2023-09-07T11:33:48;99259.47;;;27.29;66.52
52975;BME280;38839;45.186;5.720;2023-09-07T11:36:14;99256.16;;;27.39;65.35
52975;BME280;38839;45.186;5.720;2023-09-07T11:38:42;99252.31;;;27.43;65.07
52975;BME280;38839;45.186;5.720;2023-09-07T11:41:08;99254.53;;;27.49;62.43
52975;BME280;38839;45.186;5.720;2023-09-07T11:43:33;99248.00;;;27.53;62.00
52975;BME280;38839;45.186;5.720;2023-09-07T11:45:59;99250.69;;;27.53;62.76
52975;BME280;38839;45.186;5.720;2023-09-07T11:48:26;99244.03;;;27.59;62.61
52975;BME280;38839;45.186;5.720;2023-09-07T11:50:51;99245.53;;;27.63;62.62
52975;BME280;38839;45.186;5.720;2023-09-07T11:53:16;99242.50;;;27.67;61.93
52975;BME280;38839;45.186;5.720;2023-09-07T11:55:42;99234.00;;;27.74;61.48
52975;BME280;38839;45.186;5.720;2023-09-07T11:58:08;99239.88;;;27.79;60.94
52975;BME280;38839;45.186;5.720;2023-09-07T12:00:34;99238.94;;;27.80;59.99
52975;BME280;38839;45.186;5.720;2023-09-07T12:02:59;99233.22;;;27.84;60.13
52975;BME280;38839;45.186;5.720;2023-09-07T12:05:25;99239.00;;;27.91;59.65
52975;BME280;38839;45.186;5.720;2023-09-07T12:07:50;99235.13;;;27.95;59.61
52975;BME280;38839;45.186;5.720;2023-09-07T12:10:16;99227.84;;;27.97;59.38
52975;BME280;38839;45.186;5.720;2023-09-07T12:12:42;99222.75;;;28.05;58.12
52975;BME280;38839;45.186;5.720;2023-09-07T12:15:08;99223.84;;;28.03;57.85
52975;BME280;38839;45.186;5.720;2023-09-07T12:17:33;99216.66;;;28.03;58.51
52975;BME280;38839;45.186;5.720;2023-09-07T12:19:59;99228.13;;;28.05;58.02
52975;BME280;38839;45.186;5.720;2023-09-07T12:22:28;99217.94;;;28.11;57.44
52975;BME280;38839;45.186;5.720;2023-09-07T12:24:54;99216.72;;;28.15;56.84
52975;BME280;38839;45.186;5.720;2023-09-07T12:27:19;99215.00;;;28.14;56.85
52975;BME280;38839;45.186;5.720;2023-09-07T12:29:45;99220.03;;;28.18;56.40
52975;BME280;38839;45.186;5.720;2023-09-07T12:32:10;99210.25;;;28.17;56.60
52975;BME280;38839;45.186;5.720;2023-09-07T12:34:36;99213.59;;;28.21;56.68
52975;BME280;38839;45.186;5.720;2023-09-07T12:37:02;99210.44;;;28.27;56.78
52975;BME280;38839;45.186;5.720;2023-09-07T12:39:31;99208.97;;;28.23;56.83
52975;BME280;38839;45.186;5.720;2023-09-07T12:41:57;99205.88;;;28.16;56.75
52975;BME280;38839;45.186;5.720;2023-09-07T12:44:22;99209.16;;;28.20;56.93
52975;BME280;38839;45.186;5.720;2023-09-07T12:46:48;99206.28;;;28.23;56.85
52975;BME280;38839;45.186;5.720;2023-09-07T12:49:13;99202.13;;;28.30;56.47